Paz Navigator — PBLM — position and weather

sailwx.info

Track history (hours):
 
Tides and Currents Weather Stations Pressure Air Temp Water Temp Dewpoint Dewpoint Depression Visibility Wind Speed Wind Dir Waves Ship Positions

Paz Navigator

Last reported at 2017-Aug-25 15:58 UTC. Time now 2017-Sep-21 16:15 UTC.
Position N 28°59' W 019°04'.
Warning: this ship's position is 27 days out of date.

Length 118 m; draft 6.3 m.

Type: Ship. MMSI: 244790009.

Date/timePositionNaut miles runAvg speedWind from/ knotsBaromVisibWave heightAir tempDewpointWater temp
2017-Aug-25 15:58N 28°59' W 019°04'  
2017-Aug-21 15:36N 43°38' W 005°40'4 0.3
2017-Aug-20 22:57N 43°34' W 005°42'0 0.0
2017-Aug-20 21:30N 43°34' W 005°42'0 0.0
2017-Aug-19 10:04N 43°34' W 005°42'0 0.1
2017-Aug-19 09:59N 43°34' W 005°42'1 3.0
2017-Aug-19 09:30N 43°35' W 005°40'5 9.6
2017-Aug-19 09:00N 43°39' W 005°38'36410.3
2017-Aug-17 21:46N 49°36' W 003°56'312.9
2017-Aug-17 21:31N 49°38' W 003°51'1313.3
2017-Aug-17 20:31N 49°46' W 003°34'713.5
2017-Aug-17 20:00N 49°49' W 003°25'713.2
2017-Aug-17 19:28N 49°53' W 003°15'612.9
2017-Aug-17 19:00N 49°56' W 003°07'612.5
2017-Aug-17 18:30N 49°59' W 002°59'6610.8
2017-Aug-17 12:22N 50°18' W 001°20'4013.5
2017-Aug-17 09:22N 50°28' W 000°19'513.2
2017-Aug-17 09:01N 50°30' W 000°12'713.1
2017-Aug-17 08:31N 50°32' W 000°02'613.0
2017-Aug-17 08:01N 50°33' E 000°08'612.6
2017-Aug-17 07:30N 50°35' E 000°18'612.0
2017-Aug-17 06:59N 50°37' E 000°27'511.2
2017-Aug-17 06:30N 50°39' E 000°35'611.3
2017-Aug-17 06:00N 50°42' E 000°42'2711.5
2017-Aug-17 03:38N 50°59' E 001°16'212.6
2017-Aug-17 03:30N 50°60' E 001°18'713.2
2017-Aug-17 03:00N 51°04' E 001°26'714.1
2017-Aug-17 02:30N 51°08' E 001°35'714.3
2017-Aug-17 02:01N 51°13' E 001°43'714.2
2017-Aug-17 01:30N 51°18' E 001°51'713.6
2017-Aug-17 01:00N 51°23' E 001°58'611.9
2017-Aug-17 00:29N 51°23' E 002°08'613.4
2017-Aug-17 00:00N 51°21' E 002°17'713.3
2017-Aug-16 23:30N 51°22' E 002°28'713.1
2017-Aug-16 23:00N 51°23' E 002°38'612.4
2017-Aug-16 22:30N 51°22' E 002°48'713.3
2017-Aug-16 22:00N 51°24' E 002°58'612.8
2017-Aug-16 21:30N 51°24' E 003°09'713.2
2017-Aug-16 21:00N 51°25' E 003°19'713.1
2017-Aug-16 20:30N 51°25' E 003°30'511.0
2017-Aug-16 20:00N 51°26' E 003°38'510.9
2017-Aug-16 19:30N 51°22' E 003°44'611.0
2017-Aug-16 19:00N 51°21' E 003°53'510.7
2017-Aug-16 18:30N 51°26' E 003°58'4 8.2
2017-Aug-16 18:01N 51°23' E 004°03'510.7
2017-Aug-16 17:30N 51°24' E 004°11'5 9.8
2017-Aug-16 17:00N 51°21' E 004°17'0 0.1
2017-Aug-16 16:31N 51°21' E 004°17'0 0.5
2017-Aug-16 16:00N 51°21' E 004°17'0 0.8
2017-Aug-16 15:30N 51°20' E 004°18'2 3.0
2017-Aug-16 15:00N 51°19' E 004°19'3 5.3
2017-Aug-16 14:30N 51°17' E 004°21'2 4.1
2017-Aug-16 14:00N 51°15' E 004°22'0 0.0
2017-Aug-16 13:15N 51°15' E 004°22'0 0.0
2017-Aug-16 12:59N 51°15' E 004°22'0 0.0
2017-Aug-16 12:27N 51°15' E 004°22'0 0.0
2017-Aug-16 11:55N 51°15' E 004°22'0 0.0
2017-Aug-16 11:30N 51°15' E 004°22'0 0.0
2017-Aug-16 11:00N 51°15' E 004°22'0 0.0
2017-Aug-16 10:28N 51°15' E 004°22'0 0.0
2017-Aug-16 09:57N 51°15' E 004°22'0 0.0
2017-Aug-16 09:25N 51°15' E 004°22'0 0.0
2017-Aug-16 08:53N 51°15' E 004°22'0 0.0
2017-Aug-16 08:27N 51°15' E 004°22'0 0.0
2017-Aug-16 07:57N 51°15' E 004°22'0 0.0
2017-Aug-16 07:30N 51°15' E 004°22'0 0.0
2017-Aug-16 06:58N 51°15' E 004°22'0 0.0
2017-Aug-16 06:26N 51°15' E 004°22'0 0.0
2017-Aug-16 05:58N 51°15' E 004°22'0 0.0
2017-Aug-16 05:27N 51°15' E 004°22'0 0.0
2017-Aug-16 04:59N 51°15' E 004°22'0 0.0
2017-Aug-16 04:29N 51°15' E 004°22'0 0.0
2017-Aug-16 03:57N 51°15' E 004°22'0 0.0
2017-Aug-16 03:30N 51°15' E 004°22'0 0.0
2017-Aug-16 02:53N 51°15' E 004°22'0 0.0
2017-Aug-16 02:26N 51°15' E 004°22'0 0.0
2017-Aug-16 01:56N 51°15' E 004°22'0 0.0
2017-Aug-16 01:25N 51°15' E 004°22'0 0.0
2017-Aug-16 00:58N 51°15' E 004°22'0 0.0
2017-Aug-16 00:29N 51°15' E 004°22'0 0.0
2017-Aug-15 23:54N 51°15' E 004°22'0 0.0
2017-Aug-15 23:29N 51°15' E 004°22'0 0.0
2017-Aug-15 22:59N 51°15' E 004°22'0 0.0
2017-Aug-15 22:29N 51°15' E 004°22'0 0.0
2017-Aug-15 21:57N 51°15' E 004°22'0 0.0
2017-Aug-15 21:30N 51°15' E 004°22'0 0.0
2017-Aug-15 20:59N 51°15' E 004°22'0 0.0
2017-Aug-15 20:29N 51°15' E 004°22'0 0.0
2017-Aug-15 19:55N 51°15' E 004°22'0 0.0
2017-Aug-15 19:30N 51°15' E 004°22'0 0.0
2017-Aug-15 19:00N 51°15' E 004°22'0 0.0
2017-Aug-15 18:29N 51°15' E 004°22'0 0.0
2017-Aug-15 17:56N 51°15' E 004°22'0 0.0
2017-Aug-15 17:23N 51°15' E 004°22'0 0.0
2017-Aug-15 16:59N 51°15' E 004°22'0 0.0
2017-Aug-15 16:27N 51°15' E 004°22'  
Track history (hours):
 
Tides and Currents Weather Stations Pressure Air Temp Water Temp Dewpoint Dewpoint Depression Visibility Wind Speed Wind Dir Waves Ship Positions

Paz Navigator

Last reported at 2017-Aug-25 15:58 UTC. Time now 2017-Sep-21 16:15 UTC.
Position N 28°59' W 019°04'.
Warning: this ship's position is 27 days out of date.

Length 118 m; draft 6.3 m.

Type: Ship. MMSI: 244790009.

Date/timePositionNaut miles runAvg speedWind from/ knotsBaromVisibWave heightAir tempDewpointWater temp
2017-Aug-25 15:58N 28°59' W 019°04'  
2017-Aug-21 15:36N 43°38' W 005°40'4 0.3
2017-Aug-20 22:57N 43°34' W 005°42'0 0.0
2017-Aug-20 21:30N 43°34' W 005°42'0 0.0
2017-Aug-19 10:04N 43°34' W 005°42'0 0.1
2017-Aug-19 09:59N 43°34' W 005°42'1 3.0
2017-Aug-19 09:30N 43°35' W 005°40'5 9.6
2017-Aug-19 09:00N 43°39' W 005°38'36410.3
2017-Aug-17 21:46N 49°36' W 003°56'312.9
2017-Aug-17 21:31N 49°38' W 003°51'1313.3
2017-Aug-17 20:31N 49°46' W 003°34'713.5
2017-Aug-17 20:00N 49°49' W 003°25'713.2
2017-Aug-17 19:28N 49°53' W 003°15'612.9
2017-Aug-17 19:00N 49°56' W 003°07'612.5
2017-Aug-17 18:30N 49°59' W 002°59'6610.8
2017-Aug-17 12:22N 50°18' W 001°20'4013.5
2017-Aug-17 09:22N 50°28' W 000°19'513.2
2017-Aug-17 09:01N 50°30' W 000°12'713.1
2017-Aug-17 08:31N 50°32' W 000°02'613.0
2017-Aug-17 08:01N 50°33' E 000°08'612.6
2017-Aug-17 07:30N 50°35' E 000°18'612.0
2017-Aug-17 06:59N 50°37' E 000°27'511.2
2017-Aug-17 06:30N 50°39' E 000°35'611.3
2017-Aug-17 06:00N 50°42' E 000°42'2711.5
2017-Aug-17 03:38N 50°59' E 001°16'212.6
2017-Aug-17 03:30N 50°60' E 001°18'713.2
2017-Aug-17 03:00N 51°04' E 001°26'714.1
2017-Aug-17 02:30N 51°08' E 001°35'714.3
2017-Aug-17 02:01N 51°13' E 001°43'714.2
2017-Aug-17 01:30N 51°18' E 001°51'713.6
2017-Aug-17 01:00N 51°23' E 001°58'611.9
2017-Aug-17 00:29N 51°23' E 002°08'613.4
2017-Aug-17 00:00N 51°21' E 002°17'713.3
2017-Aug-16 23:30N 51°22' E 002°28'713.1
2017-Aug-16 23:00N 51°23' E 002°38'612.4
2017-Aug-16 22:30N 51°22' E 002°48'713.3
2017-Aug-16 22:00N 51°24' E 002°58'612.8
2017-Aug-16 21:30N 51°24' E 003°09'713.2
2017-Aug-16 21:00N 51°25' E 003°19'713.1
2017-Aug-16 20:30N 51°25' E 003°30'511.0
2017-Aug-16 20:00N 51°26' E 003°38'510.9
2017-Aug-16 19:30N 51°22' E 003°44'611.0
2017-Aug-16 19:00N 51°21' E 003°53'510.7
2017-Aug-16 18:30N 51°26' E 003°58'4 8.2
2017-Aug-16 18:01N 51°23' E 004°03'510.7
2017-Aug-16 17:30N 51°24' E 004°11'5 9.8
2017-Aug-16 17:00N 51°21' E 004°17'0 0.1
2017-Aug-16 16:31N 51°21' E 004°17'0 0.5
2017-Aug-16 16:00N 51°21' E 004°17'0 0.8
2017-Aug-16 15:30N 51°20' E 004°18'2 3.0
2017-Aug-16 15:00N 51°19' E 004°19'3 5.3
2017-Aug-16 14:30N 51°17' E 004°21'2 4.1
2017-Aug-16 14:00N 51°15' E 004°22'0 0.0
2017-Aug-16 13:15N 51°15' E 004°22'0 0.0
2017-Aug-16 12:59N 51°15' E 004°22'0 0.0
2017-Aug-16 12:27N 51°15' E 004°22'0 0.0
2017-Aug-16 11:55N 51°15' E 004°22'0 0.0
2017-Aug-16 11:30N 51°15' E 004°22'0 0.0
2017-Aug-16 11:00N 51°15' E 004°22'0 0.0
2017-Aug-16 10:28N 51°15' E 004°22'0 0.0
2017-Aug-16 09:57N 51°15' E 004°22'0 0.0
2017-Aug-16 09:25N 51°15' E 004°22'0 0.0
2017-Aug-16 08:53N 51°15' E 004°22'0 0.0
2017-Aug-16 08:27N 51°15' E 004°22'0 0.0
2017-Aug-16 07:57N 51°15' E 004°22'0 0.0
2017-Aug-16 07:30N 51°15' E 004°22'0 0.0
2017-Aug-16 06:58N 51°15' E 004°22'0 0.0
2017-Aug-16 06:26N 51°15' E 004°22'0 0.0
2017-Aug-16 05:58N 51°15' E 004°22'0 0.0
2017-Aug-16 05:27N 51°15' E 004°22'0 0.0
2017-Aug-16 04:59N 51°15' E 004°22'0 0.0
2017-Aug-16 04:29N 51°15' E 004°22'0 0.0
2017-Aug-16 03:57N 51°15' E 004°22'0 0.0
2017-Aug-16 03:30N 51°15' E 004°22'0 0.0
2017-Aug-16 02:53N 51°15' E 004°22'0 0.0
2017-Aug-16 02:26N 51°15' E 004°22'0 0.0
2017-Aug-16 01:56N 51°15' E 004°22'0 0.0
2017-Aug-16 01:25N 51°15' E 004°22'0 0.0
2017-Aug-16 00:58N 51°15' E 004°22'0 0.0
2017-Aug-16 00:29N 51°15' E 004°22'0 0.0
2017-Aug-15 23:54N 51°15' E 004°22'0 0.0
2017-Aug-15 23:29N 51°15' E 004°22'0 0.0
2017-Aug-15 22:59N 51°15' E 004°22'0 0.0
2017-Aug-15 22:29N 51°15' E 004°22'0 0.0
2017-Aug-15 21:57N 51°15' E 004°22'0 0.0
2017-Aug-15 21:30N 51°15' E 004°22'0 0.0
2017-Aug-15 20:59N 51°15' E 004°22'0 0.0
2017-Aug-15 20:29N 51°15' E 004°22'0 0.0
2017-Aug-15 19:55N 51°15' E 004°22'0 0.0
2017-Aug-15 19:30N 51°15' E 004°22'0 0.0
2017-Aug-15 19:00N 51°15' E 004°22'0 0.0
2017-Aug-15 18:29N 51°15' E 004°22'0 0.0
2017-Aug-15 17:56N 51°15' E 004°22'0 0.0
2017-Aug-15 17:23N 51°15' E 004°22'0 0.0
2017-Aug-15 16:59N 51°15' E 004°22'0 0.0
2017-Aug-15 16:27N 51°15' E 004°22'  

Dump ship's entire track history